createdAt,value
2022-09-09T00:01:21.463Z,100587.03
2022-09-09T00:04:13.827Z,100575.00
2022-09-09T00:07:06.453Z,100584.41
2022-09-09T00:10:12.164Z,100575.00
2022-09-09T00:13:12.374Z,100584.59
2022-09-09T00:16:00.306Z,100577.63
2022-09-09T00:18:48.400Z,100585.72
2022-09-09T00:21:33.688Z,100587.50
2022-09-09T00:24:26.392Z,100586.59
2022-09-09T00:27:23.081Z,100587.50
2022-09-09T00:30:23.401Z,100581.50
2022-09-09T00:33:15.752Z,100578.66
2022-09-09T00:36:01.842Z,100585.03
2022-09-09T00:38:56.716Z,100572.38
2022-09-09T00:41:48.175Z,100575.97
2022-09-09T00:44:37.494Z,100573.66
2022-09-09T00:47:22.638Z,100574.41
2022-09-09T00:50:25.948Z,100575.66
2022-09-09T00:53:11.534Z,100576.50
2022-09-09T00:56:00.039Z,100577.97
2022-09-09T00:58:57.240Z,100569.72
2022-09-09T01:01:42.974Z,100571.63
2022-09-09T01:04:33.508Z,100567.75
2022-09-09T01:07:19.838Z,100579.88
2022-09-09T01:10:13.080Z,100572.59
2022-09-09T01:13:01.994Z,100568.63
2022-09-09T01:15:48.619Z,100575.06
2022-09-09T01:18:39.113Z,100579.31
2022-09-09T01:21:27.327Z,100570.19
2022-09-09T01:24:18.371Z,100580.94
2022-09-09T01:27:05.261Z,100572.28
2022-09-09T01:29:50.377Z,100571.91
2022-09-09T01:32:49.521Z,100564.41
2022-09-09T01:35:40.552Z,100567.78
2022-09-09T01:38:26.080Z,100565.75
2022-09-09T01:41:11.282Z,100574.88
2022-09-09T01:43:57.666Z,100566.72
2022-09-09T01:46:42.821Z,100567.13
2022-09-09T01:49:28.242Z,100568.84
2022-09-09T01:52:13.791Z,100569.25
2022-09-09T01:54:59.144Z,100567.97
2022-09-09T01:57:51.146Z,100570.59
2022-09-09T02:00:41.556Z,100567.91
2022-09-09T02:03:32.770Z,100579.19
2022-09-09T02:06:24.143Z,100568.84
2022-09-09T02:09:12.590Z,100571.28
2022-09-09T02:12:19.508Z,100570.84
2022-09-09T02:15:08.631Z,100573.66
2022-09-09T02:17:56.587Z,100569.13
2022-09-09T02:20:43.050Z,100567.34
2022-09-09T02:23:29.377Z,100571.88
2022-09-09T02:26:20.564Z,100567.16
2022-09-09T02:29:08.905Z,100568.22
2022-09-09T02:31:56.911Z,100561.34
2022-09-09T02:34:46.521Z,100565.97
2022-09-09T02:37:36.100Z,100562.56
2022-09-09T02:40:22.441Z,100569.41
2022-09-09T02:43:07.624Z,100556.56
2022-09-09T02:46:02.171Z,100554.84
2022-09-09T02:48:58.563Z,100556.56
2022-09-09T02:51:44.469Z,100553.06
2022-09-09T02:54:32.874Z,100562.00
2022-09-09T02:57:22.102Z,100567.28
2022-09-09T03:00:07.892Z,100576.50
2022-09-09T03:02:54.374Z,100579.31
2022-09-09T03:05:39.926Z,100573.94
2022-09-09T03:08:25.080Z,100567.75
2022-09-09T03:11:10.640Z,100570.66
2022-09-09T03:13:57.054Z,100560.03
2022-09-09T03:16:44.107Z,100557.69
2022-09-09T03:19:30.879Z,100556.38
2022-09-09T03:22:16.328Z,100578.09
2022-09-09T03:25:02.773Z,100573.88
2022-09-09T03:27:48.057Z,100574.25
2022-09-09T03:30:33.197Z,100571.72
2022-09-09T03:33:18.731Z,100572.53
2022-09-09T03:36:04.490Z,100577.00
2022-09-09T03:38:49.542Z,100577.81
2022-09-09T03:41:35.123Z,100576.13
2022-09-09T03:44:20.528Z,100578.28
2022-09-09T03:47:07.274Z,100575.91
2022-09-09T03:49:52.363Z,100580.38
2022-09-09T03:52:38.377Z,100575.84
2022-09-09T03:55:23.455Z,100576.97
2022-09-09T03:58:08.873Z,100581.13
2022-09-09T04:00:57.303Z,100583.16
2022-09-09T04:03:43.288Z,100589.03
2022-09-09T04:06:28.824Z,100586.50
2022-09-09T04:09:14.189Z,100592.16
2022-09-09T04:11:59.491Z,100591.91
2022-09-09T04:14:44.597Z,100593.06
2022-09-09T04:17:30.108Z,100595.59
2022-09-09T04:20:15.377Z,100590.22
2022-09-09T04:23:00.779Z,100584.78
2022-09-09T04:25:47.722Z,100584.69
2022-09-09T04:28:34.446Z,100581.19
2022-09-09T04:31:22.431Z,100589.69
2022-09-09T04:34:08.875Z,100593.44
2022-09-09T04:36:54.279Z,100595.22
2022-09-09T04:39:39.464Z,100592.09
2022-09-09T04:42:24.804Z,100589.94
2022-09-09T04:45:12.070Z,100597.69
2022-09-09T04:47:57.593Z,100595.59
2022-09-09T04:50:42.949Z,100592.69
2022-09-09T04:53:28.442Z,100593.44
2022-09-09T04:56:17.471Z,100595.03
2022-09-09T04:59:03.871Z,100600.13
2022-09-09T05:01:50.076Z,100607.16
2022-09-09T05:04:35.276Z,100605.56
2022-09-09T05:07:20.693Z,100603.66
2022-09-09T05:10:06.989Z,100605.56
2022-09-09T05:12:55.450Z,100602.00
2022-09-09T05:15:41.228Z,100608.94
2022-09-09T05:18:26.474Z,100608.56
2022-09-09T05:21:12.928Z,100592.38
2022-09-09T05:23:58.739Z,100608.66
2022-09-09T05:26:45.022Z,100610.81
2022-09-09T05:29:30.269Z,100605.38
2022-09-09T05:32:18.498Z,100606.50
2022-09-09T05:35:03.971Z,100616.16
2022-09-09T05:37:49.228Z,100617.06
2022-09-09T05:40:34.693Z,100615.66
2022-09-09T05:43:20.969Z,100621.88
2022-09-09T05:46:06.383Z,100626.59
2022-09-09T05:48:52.494Z,100627.41
2022-09-09T05:51:38.587Z,100637.56
2022-09-09T05:54:24.141Z,100639.88
2022-09-09T05:57:09.451Z,100642.09
2022-09-09T05:59:54.880Z,100640.47
2022-09-09T06:02:40.249Z,100642.16
2022-09-09T06:05:28.183Z,100638.50
2022-09-09T06:08:13.643Z,100637.00
2022-09-09T06:11:03.749Z,100639.44
2022-09-09T06:13:51.519Z,100641.34
2022-09-09T06:16:38.676Z,100646.00
2022-09-09T06:19:27.750Z,100647.94
2022-09-09T06:22:13.527Z,100654.09
2022-09-09T06:24:58.960Z,100657.06
2022-09-09T06:27:44.162Z,100656.63
2022-09-09T06:30:30.961Z,100659.63
2022-09-09T06:33:16.436Z,100657.72
2022-09-09T06:36:02.869Z,100663.28
2022-09-09T06:38:48.126Z,100663.47
2022-09-09T06:41:34.275Z,100668.16
2022-09-09T06:44:19.951Z,100658.22
2022-09-09T06:47:05.210Z,100663.59
2022-09-09T06:49:50.677Z,100670.72
2022-09-09T06:52:35.948Z,100657.38
2022-09-09T06:55:21.704Z,100667.22
2022-09-09T06:58:09.254Z,100659.53
2022-09-09T07:01:02.054Z,100660.00
2022-09-09T07:03:49.135Z,100668.19
2022-09-09T07:06:35.775Z,100659.28
2022-09-09T07:09:21.335Z,100663.94
2022-09-09T07:12:07.156Z,100659.97
2022-09-09T07:14:52.368Z,100663.44
2022-09-09T07:17:37.417Z,100660.53
2022-09-09T07:20:22.682Z,100659.44
2022-09-09T07:23:08.147Z,100667.00
2022-09-09T07:25:53.824Z,100661.56
2022-09-09T07:28:39.512Z,100665.81
2022-09-09T07:31:24.917Z,100668.59
2022-09-09T07:34:10.156Z,100659.25
2022-09-09T07:36:55.583Z,100664.97
2022-09-09T07:39:40.710Z,100671.94
2022-09-09T07:42:26.091Z,100674.09
2022-09-09T07:45:11.384Z,100676.31
2022-09-09T07:47:57.782Z,100668.06
2022-09-09T07:50:43.154Z,100669.78
2022-09-09T07:53:28.583Z,100675.00
2022-09-09T07:56:17.560Z,100679.91
2022-09-09T07:59:02.932Z,100678.72
2022-09-09T08:01:55.249Z,100671.69
2022-09-09T08:04:41.453Z,100682.00
2022-09-09T08:07:27.083Z,100677.44
2022-09-09T08:10:12.467Z,100667.22
2022-09-09T08:13:16.912Z,100681.13
2022-09-09T08:16:06.684Z,100681.00
2022-09-09T08:18:52.793Z,100674.84
2022-09-09T08:21:39.889Z,100675.97
2022-09-09T08:24:25.144Z,100676.81
2022-09-09T08:27:11.036Z,100680.47
2022-09-09T08:29:56.938Z,100675.78
2022-09-09T08:32:45.517Z,100680.97
2022-09-09T08:35:33.395Z,100677.66
2022-09-09T08:38:19.612Z,100679.75
2022-09-09T08:41:10.862Z,100669.84
2022-09-09T08:44:03.209Z,100674.97
2022-09-09T08:47:07.314Z,100664.16
2022-09-09T08:50:11.263Z,100679.06
2022-09-09T08:52:56.292Z,100685.56
2022-09-09T08:55:42.364Z,100684.00
2022-09-09T08:58:35.242Z,100680.69
2022-09-09T09:01:28.054Z,100675.84
2022-09-09T09:04:34.734Z,100675.25
2022-09-09T09:07:22.067Z,100680.81
2022-09-09T09:10:30.524Z,100686.13
2022-09-09T09:13:17.848Z,100673.31
2022-09-09T09:16:14.961Z,100683.22
2022-09-09T09:19:00.982Z,100683.31
2022-09-09T09:21:52.215Z,100676.81
2022-09-09T09:24:46.709Z,100672.41
2022-09-09T09:27:45.042Z,100674.78
2022-09-09T09:30:33.101Z,100676.84
2022-09-09T09:33:27.752Z,100673.56
2022-09-09T09:36:16.210Z,100672.31
2022-09-09T09:42:14.877Z,100665.69
2022-09-09T09:45:20.291Z,100672.03
2022-09-09T09:48:07.995Z,100666.13
2022-09-09T09:51:11.408Z,100661.97
2022-09-09T09:54:07.549Z,100667.78
2022-09-09T09:56:52.765Z,100664.28
2022-09-09T09:59:40.981Z,100658.56
2022-09-09T10:02:27.530Z,100661.22
2022-09-09T10:05:14.588Z,100656.91
2022-09-09T10:08:10.865Z,100655.09
2022-09-09T10:11:16.657Z,100663.81
2022-09-09T10:14:21.699Z,100658.03
2022-09-09T10:17:14.086Z,100655.94
2022-09-09T10:20:14.011Z,100657.00
2022-09-09T10:23:11.595Z,100646.91
2022-09-09T10:26:15.356Z,100646.53
2022-09-09T10:29:15.161Z,100651.72
2022-09-09T10:32:11.644Z,100650.16
2022-09-09T10:34:58.893Z,100656.41
2022-09-09T10:37:44.408Z,100651.47
2022-09-09T10:40:34.305Z,100651.69
2022-09-09T10:43:35.330Z,100635.41
2022-09-09T10:46:29.475Z,100629.72
2022-09-09T10:49:23.226Z,100636.44
2022-09-09T10:52:25.520Z,100643.13
2022-09-09T10:55:14.529Z,100632.06
2022-09-09T10:58:01.419Z,100624.38
2022-09-09T11:00:48.223Z,100631.25
2022-09-09T11:03:34.299Z,100628.88
2022-09-09T11:06:21.894Z,100631.41
2022-09-09T11:09:12.940Z,100627.19
2022-09-09T11:11:58.725Z,100629.78
2022-09-09T11:14:46.765Z,100631.16
2022-09-09T11:17:40.860Z,100624.53
2022-09-09T11:20:26.778Z,100627.72
2022-09-09T11:23:18.239Z,100617.66
2022-09-09T11:26:04.641Z,100623.75
2022-09-09T11:29:05.090Z,100617.41
2022-09-09T11:31:53.428Z,100621.88
2022-09-09T11:35:10.722Z,100632.03
2022-09-09T11:38:03.008Z,100632.66
2022-09-09T11:40:54.968Z,100636.44
2022-09-09T11:43:42.159Z,100639.47
2022-09-09T11:46:38.992Z,100629.72
2022-09-09T11:49:41.589Z,100631.25
2022-09-09T11:52:44.413Z,100631.22
2022-09-09T11:55:33.716Z,100621.66
2022-09-09T11:58:20.121Z,100623.09
2022-09-09T12:01:15.734Z,100617.44
2022-09-09T12:04:10.161Z,100627.59
2022-09-09T12:07:03.456Z,100621.50
2022-09-09T12:09:52.637Z,100619.91
2022-09-09T12:12:43.654Z,100611.56
2022-09-09T12:15:30.125Z,100632.75
2022-09-09T12:18:22.336Z,100636.19
2022-09-09T12:21:30.115Z,100637.09
2022-09-09T12:24:21.205Z,100645.44
2022-09-09T12:27:12.540Z,100649.53
2022-09-09T12:30:00.708Z,100653.59
2022-09-09T12:32:46.070Z,100655.47
2022-09-09T12:35:32.104Z,100649.16
2022-09-09T12:38:23.470Z,100649.09
2022-09-09T12:41:22.055Z,100640.81
2022-09-09T12:44:09.688Z,100637.97
2022-09-09T12:46:56.590Z,100637.56
2022-09-09T12:49:42.414Z,100623.31
2022-09-09T12:52:33.716Z,100625.75
2022-09-09T12:55:22.588Z,100624.91
2022-09-09T12:58:07.991Z,100627.19
2022-09-09T13:00:54.174Z,100621.78
2022-09-09T13:03:46.610Z,100622.84
2022-09-09T13:06:33.151Z,100622.00
2022-09-09T13:09:18.925Z,100631.00
2022-09-09T13:12:06.156Z,100635.19
2022-09-09T13:14:54.997Z,100640.06
2022-09-09T13:17:41.827Z,100639.13
2022-09-09T13:20:27.508Z,100650.63
2022-09-09T13:23:13.314Z,100653.81
2022-09-09T13:25:59.065Z,100667.56
2022-09-09T13:28:46.266Z,100667.00
2022-09-09T13:31:34.171Z,100659.41
2022-09-09T13:34:29.523Z,100664.16
2022-09-09T13:37:23.199Z,100668.66
2022-09-09T13:40:18.091Z,100667.53
2022-09-09T13:43:04.369Z,100667.81
2022-09-09T13:45:57.489Z,100676.81
2022-09-09T13:48:42.748Z,100672.75
2022-09-09T13:51:38.580Z,100675.00
2022-09-09T13:54:24.010Z,100675.28
2022-09-09T13:57:16.815Z,100672.47
2022-09-09T14:00:05.081Z,100659.97
2022-09-09T14:02:51.485Z,100652.94
2022-09-09T14:05:36.726Z,100652.34
2022-09-09T14:08:26.766Z,100647.66
2022-09-09T14:11:13.170Z,100655.03
2022-09-09T14:13:58.433Z,100648.50
2022-09-09T14:16:43.618Z,100649.94
2022-09-09T14:19:28.917Z,100640.47
2022-09-09T14:22:14.451Z,100640.63
2022-09-09T14:24:59.687Z,100646.69
2022-09-09T14:27:46.943Z,100652.91
2022-09-09T14:30:32.026Z,100649.13
2022-09-09T14:33:18.096Z,100651.75
2022-09-09T14:36:04.334Z,100642.56
2022-09-09T14:38:49.804Z,100635.34
2022-09-09T14:41:34.951Z,100637.44
2022-09-09T14:44:20.327Z,100629.91
2022-09-09T14:47:06.299Z,100635.13
2022-09-09T14:49:51.787Z,100644.88
2022-09-09T14:52:37.709Z,100650.25
2022-09-09T14:55:22.825Z,100644.59
2022-09-09T14:58:08.316Z,100646.47
2022-09-09T15:00:54.062Z,100640.53
2022-09-09T15:03:39.923Z,100645.47
2022-09-09T15:06:26.193Z,100643.91
2022-09-09T15:09:12.175Z,100641.91
2022-09-09T15:11:57.592Z,100641.00
2022-09-09T15:14:43.590Z,100635.84
2022-09-09T15:17:29.072Z,100626.75
2022-09-09T15:20:14.279Z,100638.63
2022-09-09T15:22:59.706Z,100636.72
2022-09-09T15:25:51.536Z,100639.59
2022-09-09T15:28:38.127Z,100630.38
2022-09-09T15:31:24.342Z,100642.59
2022-09-09T15:34:09.800Z,100639.47
2022-09-09T15:36:56.371Z,100637.81
2022-09-09T15:39:41.904Z,100646.19
2022-09-09T15:42:27.415Z,100635.75
2022-09-09T15:45:13.476Z,100630.53
2022-09-09T15:47:58.736Z,100639.59
2022-09-09T15:50:43.779Z,100641.16
2022-09-09T15:53:29.190Z,100647.28
2022-09-09T15:56:14.642Z,100638.28
2022-09-09T15:59:00.793Z,100633.41
2022-09-09T16:01:46.243Z,100634.50
2022-09-09T16:04:32.056Z,100643.59
2022-09-09T16:07:17.039Z,100640.31
2022-09-09T16:10:03.016Z,100641.69
2022-09-09T16:12:50.052Z,100647.88
2022-09-09T16:15:35.480Z,100640.88
2022-09-09T16:18:21.495Z,100643.41
2022-09-09T16:21:08.892Z,100639.47
2022-09-09T16:23:54.312Z,100635.28
2022-09-09T16:26:40.747Z,100629.94
2022-09-09T16:29:28.087Z,100628.69
2022-09-09T16:32:13.562Z,100631.75
2022-09-09T16:34:59.130Z,100632.19
2022-09-09T16:37:45.034Z,100635.00
2022-09-09T16:40:31.384Z,100635.28
2022-09-09T16:43:16.853Z,100627.69
2022-09-09T16:46:02.535Z,100628.91
2022-09-09T16:48:48.742Z,100620.59
2022-09-09T16:51:35.543Z,100620.25
2022-09-09T16:54:21.033Z,100623.28
2022-09-09T16:57:07.609Z,100617.34
2022-09-09T16:59:55.039Z,100628.06
2022-09-09T17:02:40.717Z,100632.28
2022-09-09T17:05:26.124Z,100625.63
2022-09-09T17:08:11.208Z,100629.75
2022-09-09T17:10:56.993Z,100626.91
2022-09-09T17:13:48.547Z,100617.59
2022-09-09T17:16:37.666Z,100625.59
2022-09-09T17:19:22.969Z,100624.44
2022-09-09T17:22:17.545Z,100631.22
2022-09-09T17:25:04.177Z,100619.34
2022-09-09T17:27:49.429Z,100617.63
2022-09-09T17:30:35.246Z,100610.41
2022-09-09T17:33:21.092Z,100607.25
2022-09-09T17:36:12.093Z,100607.19
2022-09-09T17:38:57.395Z,100615.81
2022-09-09T17:41:43.021Z,100616.06
2022-09-09T17:44:29.188Z,100622.09
2022-09-09T17:47:14.295Z,100628.59
2022-09-09T17:49:59.640Z,100628.22
2022-09-09T17:52:44.646Z,100642.94
2022-09-09T17:55:30.074Z,100645.34
2022-09-09T17:58:16.408Z,100642.56
2022-09-09T18:01:06.738Z,100643.16
2022-09-09T18:03:52.278Z,100638.53
2022-09-09T18:06:39.216Z,100652.25
2022-09-09T18:09:25.971Z,100650.94
2022-09-09T18:12:11.203Z,100662.59
2022-09-09T18:14:58.361Z,100668.09
2022-09-09T18:17:45.050Z,100673.22
2022-09-09T18:20:30.489Z,100671.34
2022-09-09T18:23:15.910Z,100671.75
2022-09-09T18:26:01.327Z,100684.31
2022-09-09T18:28:51.048Z,100688.66
2022-09-09T18:31:37.835Z,100683.47
2022-09-09T18:34:25.495Z,100685.63
2022-09-09T18:37:10.995Z,100690.06
2022-09-09T18:39:56.397Z,100692.25
2022-09-09T18:42:41.667Z,100689.63
2022-09-09T18:45:26.680Z,100686.06
2022-09-09T18:48:12.641Z,100684.16
2022-09-09T18:51:02.039Z,100688.66
2022-09-09T18:53:51.000Z,100693.97
2022-09-09T18:56:36.610Z,100689.72
2022-09-09T18:59:23.643Z,100695.00
2022-09-09T19:02:11.485Z,100694.94
2022-09-09T19:04:57.260Z,100698.69
2022-09-09T19:07:42.567Z,100699.19
2022-09-09T19:10:27.969Z,100697.31
2022-09-09T19:13:13.998Z,100703.97
2022-09-09T19:16:10.268Z,100701.19
2022-09-09T19:18:57.723Z,100701.94
2022-09-09T19:21:44.483Z,100712.00
2022-09-09T19:24:30.976Z,100705.75
2022-09-09T19:27:23.158Z,100703.84
2022-09-09T19:30:08.664Z,100702.47
2022-09-09T19:32:54.275Z,100700.69
2022-09-09T19:35:39.491Z,100693.69
2022-09-09T19:38:26.327Z,100700.69
2022-09-09T19:41:13.542Z,100702.06
2022-09-09T19:44:01.605Z,100695.50
2022-09-09T19:46:47.217Z,100701.63
2022-09-09T19:49:33.133Z,100703.22
2022-09-09T19:52:18.582Z,100702.03
2022-09-09T19:55:04.389Z,100702.22
2022-09-09T19:57:49.713Z,100703.19
2022-09-09T20:00:39.345Z,100692.31
2022-09-09T20:03:25.198Z,100703.06
2022-09-09T20:06:12.080Z,100712.25
2022-09-09T20:08:57.931Z,100719.22
2022-09-09T20:11:46.616Z,100730.19
2022-09-09T20:14:34.051Z,100729.34
2022-09-09T20:17:23.272Z,100736.63
2022-09-09T20:20:08.635Z,100735.72
2022-09-09T20:22:53.752Z,100736.84
2022-09-09T20:25:39.282Z,100734.50
2022-09-09T20:28:24.651Z,100742.03
2022-09-09T20:31:11.753Z,100740.03
2022-09-09T20:33:57.439Z,100750.00
2022-09-09T20:36:42.777Z,100741.69
2022-09-09T20:39:28.339Z,100740.03
2022-09-09T20:42:14.461Z,100729.78
2022-09-09T20:44:59.592Z,100730.19
2022-09-09T20:47:45.106Z,100722.91
2022-09-09T20:50:30.821Z,100726.91
2022-09-09T20:53:16.363Z,100727.66
2022-09-09T20:56:02.482Z,100738.75
2022-09-09T20:58:47.711Z,100751.75
2022-09-09T21:01:33.352Z,100754.47
2022-09-09T21:04:19.642Z,100767.41
2022-09-09T21:07:07.386Z,100798.03
2022-09-09T21:09:52.688Z,100798.38
2022-09-09T21:12:37.869Z,100785.91
2022-09-09T21:15:24.391Z,100786.56
2022-09-09T21:18:09.557Z,100792.19
2022-09-09T21:20:55.461Z,100791.63
2022-09-09T21:23:41.379Z,100779.16
2022-09-09T21:26:26.987Z,100783.28
2022-09-09T21:29:13.042Z,100779.38
2022-09-09T21:31:58.071Z,100780.00
2022-09-09T21:34:43.738Z,100760.72
2022-09-09T21:37:29.124Z,100770.38
2022-09-09T21:40:14.902Z,100765.72
2022-09-09T21:43:00.839Z,100748.25
2022-09-09T21:45:47.226Z,100756.84
2022-09-09T21:48:32.718Z,100750.25
2022-09-09T21:51:18.626Z,100756.09
2022-09-09T21:54:03.734Z,100760.09
2022-09-09T21:56:51.963Z,100764.22
2022-09-09T21:59:37.270Z,100758.84
2022-09-09T22:02:22.903Z,100766.69
2022-09-09T22:05:09.034Z,100760.53
2022-09-09T22:07:54.745Z,100756.41
2022-09-09T22:10:41.941Z,100754.31
2022-09-09T22:13:27.835Z,100757.47
2022-09-09T22:16:14.351Z,100755.78
2022-09-09T22:19:00.746Z,100752.47
2022-09-09T22:21:46.614Z,100749.44
2022-09-09T22:24:33.488Z,100736.09
2022-09-09T22:27:19.533Z,100740.22
2022-09-09T22:30:05.357Z,100750.72
2022-09-09T22:32:51.703Z,100751.78
2022-09-09T22:35:42.395Z,100753.13
2022-09-09T22:38:28.090Z,100754.50
2022-09-09T22:41:13.977Z,100750.72
2022-09-09T22:43:59.134Z,100747.53
2022-09-09T22:46:45.790Z,100748.69
2022-09-09T22:49:31.668Z,100743.81
2022-09-09T22:52:17.787Z,100747.53
2022-09-09T22:55:03.603Z,100757.56
2022-09-09T22:57:49.521Z,100757.06
2022-09-09T23:00:35.714Z,100759.16
2022-09-09T23:03:22.319Z,100755.00
2022-09-09T23:06:08.223Z,100747.31
2022-09-09T23:08:57.584Z,100751.97
2022-09-09T23:11:43.418Z,100753.50
2022-09-09T23:14:28.966Z,100749.84
2022-09-09T23:17:16.643Z,100752.88
2022-09-09T23:20:03.234Z,100762.50
2022-09-09T23:22:48.716Z,100761.84
2022-09-09T23:25:37.004Z,100764.25
2022-09-09T23:28:22.482Z,100760.97
2022-09-09T23:31:13.363Z,100767.94
2022-09-09T23:34:00.671Z,100764.69
2022-09-09T23:36:47.269Z,100768.94
2022-09-09T23:39:33.494Z,100766.94
2022-09-09T23:42:18.941Z,100765.97
2022-09-09T23:45:04.731Z,100763.94
2022-09-09T23:47:50.340Z,100763.72
2022-09-09T23:50:36.570Z,100763.72
2022-09-09T23:53:22.696Z,100758.91
2022-09-09T23:56:09.582Z,100759.88
2022-09-09T23:58:55.300Z,100758.84
